createdAt,value
2022-11-04T00:03:21.223Z,69.22
2022-11-04T00:07:24.976Z,69.29
2022-11-04T00:11:25.055Z,69.12
2022-11-04T00:15:27.616Z,69.43
2022-11-04T00:19:10.323Z,69.28
2022-11-04T00:23:11.035Z,69.51
2022-11-04T00:27:11.579Z,70.02
2022-11-04T00:30:57.144Z,70.61
2022-11-04T00:34:38.901Z,71.00
2022-11-04T00:38:21.585Z,71.09
2022-11-04T00:42:04.503Z,71.15
2022-11-04T00:45:47.361Z,71.29
2022-11-04T00:49:31.398Z,71.21
2022-11-04T00:53:14.076Z,71.11
2022-11-04T00:56:59.255Z,71.56
2022-11-04T01:00:41.895Z,72.94
2022-11-04T01:04:24.554Z,74.81
2022-11-04T01:08:08.556Z,76.37
2022-11-04T01:11:53.937Z,77.49
2022-11-04T01:15:37.819Z,78.74
2022-11-04T01:19:20.782Z,80.63
2022-11-04T01:23:06.188Z,81.03
2022-11-04T01:26:50.160Z,82.01
2022-11-04T01:30:32.813Z,82.25
2022-11-04T01:34:15.471Z,82.10
2022-11-04T01:37:59.262Z,82.89
2022-11-04T01:41:42.173Z,82.37
2022-11-04T01:45:26.432Z,82.52
2022-11-04T01:49:24.593Z,82.34
2022-11-04T01:53:09.306Z,81.40
2022-11-04T01:56:52.820Z,82.55
2022-11-04T02:00:37.670Z,82.40
2022-11-04T02:04:30.160Z,81.39
2022-11-04T02:08:13.534Z,81.10
2022-11-04T02:12:13.516Z,80.49
2022-11-04T02:16:02.767Z,80.36
2022-11-04T02:20:00.849Z,79.77
2022-11-04T02:23:59.546Z,79.20
2022-11-04T02:27:58.587Z,79.21
2022-11-04T02:31:45.535Z,78.52
2022-11-04T02:35:34.817Z,78.92
2022-11-04T02:39:24.770Z,78.66
2022-11-04T02:43:13.679Z,78.57
2022-11-04T02:47:01.382Z,78.10
2022-11-04T02:50:47.022Z,77.89
2022-11-04T02:54:32.128Z,77.76
2022-11-04T02:58:17.678Z,77.09
2022-11-04T03:02:03.065Z,77.26
2022-11-04T03:05:48.747Z,77.06
2022-11-04T03:09:32.328Z,77.43
2022-11-04T03:13:17.197Z,75.85
2022-11-04T03:17:04.949Z,76.26
2022-11-04T03:20:50.155Z,76.84
2022-11-04T03:24:33.531Z,76.81
2022-11-04T03:28:25.234Z,76.31
2022-11-04T03:32:14.856Z,75.83
2022-11-04T03:35:58.532Z,74.98
2022-11-04T03:39:41.322Z,75.26
2022-11-04T03:43:32.066Z,74.77
2022-11-04T03:47:16.299Z,74.68
2022-11-04T03:50:59.761Z,74.43
2022-11-04T03:54:43.231Z,74.71
2022-11-04T03:58:38.559Z,74.66
2022-11-04T04:02:26.523Z,74.18
2022-11-04T04:06:20.088Z,73.82
2022-11-04T04:10:26.894Z,73.80
2022-11-04T04:14:37.510Z,73.45
2022-11-04T04:18:27.611Z,73.64
2022-11-04T04:22:13.806Z,72.73
2022-11-04T04:26:16.795Z,72.50
2022-11-04T04:30:00.729Z,72.95
2022-11-04T04:33:45.060Z,72.65
2022-11-04T04:37:28.845Z,72.83
2022-11-04T04:41:32.868Z,72.48
2022-11-04T04:45:22.077Z,72.03
2022-11-04T04:49:08.159Z,72.71
2022-11-04T04:52:52.365Z,71.71
2022-11-04T04:56:35.037Z,71.26
2022-11-04T05:00:20.533Z,71.52
2022-11-04T05:04:03.187Z,71.50
2022-11-04T05:07:47.296Z,71.10
2022-11-04T05:11:30.075Z,71.21
2022-11-04T05:15:12.743Z,70.95
2022-11-04T05:18:57.570Z,71.14
2022-11-04T05:22:40.353Z,70.88
2022-11-04T05:26:24.347Z,71.31
2022-11-04T05:30:08.127Z,71.14
2022-11-04T05:33:50.770Z,70.23
2022-11-04T05:37:33.436Z,70.57
2022-11-04T05:41:25.773Z,70.56
2022-11-04T05:45:12.654Z,69.83
2022-11-04T05:48:55.761Z,70.56
2022-11-04T05:52:38.424Z,70.84
2022-11-04T05:56:21.376Z,70.21
2022-11-04T06:00:05.354Z,70.88
2022-11-04T06:03:49.367Z,72.46
2022-11-04T06:07:32.722Z,75.08
2022-11-04T06:11:15.504Z,76.36
2022-11-04T06:14:58.193Z,78.56
2022-11-04T06:18:40.935Z,80.31
2022-11-04T06:22:25.029Z,81.09
2022-11-04T06:26:08.226Z,81.56
2022-11-04T06:29:52.687Z,82.58
2022-11-04T06:33:37.005Z,82.57
2022-11-04T06:37:19.937Z,82.98
2022-11-04T06:44:48.554Z,84.05
2022-11-04T06:48:31.821Z,85.97
2022-11-04T06:52:14.683Z,86.21
2022-11-04T06:56:06.177Z,87.13
2022-11-04T06:59:48.765Z,87.78
2022-11-04T07:03:36.349Z,88.79
2022-11-04T07:07:19.117Z,91.19
2022-11-04T07:11:02.092Z,91.54
2022-11-04T07:14:46.059Z,93.05
2022-11-04T07:18:28.736Z,95.40
2022-11-04T07:22:11.684Z,94.31
2022-11-04T07:25:55.332Z,93.27
2022-11-04T07:29:38.246Z,92.81
2022-11-04T07:33:22.387Z,93.05
2022-11-04T07:37:05.089Z,93.95
2022-11-04T07:40:47.846Z,92.92
2022-11-04T07:44:30.945Z,92.39
2022-11-04T07:48:13.640Z,94.36
2022-11-04T07:51:57.999Z,94.02
2022-11-04T07:55:43.592Z,91.27
2022-11-04T07:59:27.093Z,90.80
2022-11-04T08:03:10.039Z,90.43
2022-11-04T08:06:53.115Z,91.05
2022-11-04T08:10:37.633Z,90.15
2022-11-04T08:14:20.401Z,90.02
2022-11-04T08:18:03.064Z,89.18
2022-11-04T08:21:45.789Z,89.15
2022-11-04T08:25:29.015Z,88.84
2022-11-04T08:29:13.153Z,87.55
2022-11-04T08:32:55.872Z,85.18
2022-11-04T08:36:40.822Z,85.49
2022-11-04T08:40:24.621Z,85.02
2022-11-04T08:44:07.631Z,86.82
2022-11-04T08:47:51.883Z,86.34
2022-11-04T08:51:38.902Z,87.13
2022-11-04T08:55:21.569Z,85.65
2022-11-04T08:59:05.702Z,87.88
2022-11-04T09:02:48.525Z,87.89
2022-11-04T09:06:35.614Z,88.73
2022-11-04T09:10:18.427Z,88.32
2022-11-04T09:14:02.099Z,89.96
2022-11-04T09:17:45.256Z,90.86
2022-11-04T09:21:29.188Z,91.68
2022-11-04T09:25:13.149Z,91.06
2022-11-04T09:28:56.769Z,89.69
2022-11-04T09:32:39.423Z,89.56
2022-11-04T09:36:22.629Z,89.68
2022-11-04T09:40:06.169Z,89.83
2022-11-04T09:43:54.343Z,90.46
2022-11-04T09:47:38.122Z,89.65
2022-11-04T09:51:47.836Z,92.77
2022-11-04T09:55:32.340Z,95.90
2022-11-04T09:59:21.111Z,96.27
2022-11-04T10:03:18.669Z,96.10
2022-11-04T10:07:11.957Z,94.50
2022-11-04T10:11:00.754Z,92.72
2022-11-04T10:15:01.060Z,88.42
2022-11-04T10:18:52.565Z,87.13
2022-11-04T10:22:39.001Z,86.57
2022-11-04T10:26:27.907Z,86.94
2022-11-04T10:30:18.140Z,84.42
2022-11-04T10:34:05.365Z,83.98
2022-11-04T10:37:49.627Z,83.96
2022-11-04T10:41:35.377Z,84.76
2022-11-04T10:45:20.358Z,84.25
2022-11-04T10:49:07.180Z,84.10
2022-11-04T10:52:50.025Z,83.17
2022-11-04T10:56:37.604Z,83.16
2022-11-04T11:00:39.267Z,83.03
2022-11-04T11:04:31.792Z,82.84
2022-11-04T11:08:30.917Z,83.32
2022-11-04T11:12:52.538Z,83.40
2022-11-04T11:16:31.347Z,82.72
2022-11-04T11:20:21.764Z,82.71
2022-11-04T11:24:16.854Z,82.25
2022-11-04T11:28:00.916Z,82.07
2022-11-04T11:31:45.046Z,81.49
2022-11-04T11:35:32.051Z,81.71
2022-11-04T11:39:20.460Z,82.17
2022-11-04T11:43:03.582Z,82.76
2022-11-04T11:46:54.566Z,84.35
2022-11-04T11:50:37.247Z,84.71
2022-11-04T11:54:33.426Z,83.78
2022-11-04T12:02:33.801Z,83.66
2022-11-04T12:06:26.327Z,81.66
2022-11-04T12:10:29.985Z,81.09
2022-11-04T12:14:19.646Z,79.43
2022-11-04T12:18:17.148Z,80.00
2022-11-04T12:22:02.596Z,80.80
2022-11-04T12:25:51.927Z,80.63
2022-11-04T12:29:42.990Z,84.14
2022-11-04T12:33:34.499Z,80.35
2022-11-04T12:37:40.346Z,78.55
2022-11-04T12:41:52.438Z,77.97
2022-11-04T12:45:44.380Z,76.64
2022-11-04T12:49:43.692Z,76.04
2022-11-04T12:53:47.793Z,78.11
2022-11-04T12:57:36.633Z,78.12
2022-11-04T13:01:23.386Z,78.77
2022-11-04T13:05:10.980Z,80.09
2022-11-04T13:08:55.980Z,80.37
2022-11-04T13:12:41.443Z,80.59
2022-11-04T13:16:24.157Z,81.90
2022-11-04T13:20:17.689Z,82.50
2022-11-04T13:24:05.812Z,83.30
2022-11-04T13:27:49.469Z,84.77
2022-11-04T13:31:40.731Z,86.61
2022-11-04T13:35:29.975Z,84.75
2022-11-04T13:39:19.690Z,85.15
2022-11-04T13:43:35.368Z,85.86
2022-11-04T13:47:22.320Z,85.85
2022-11-04T13:51:08.670Z,85.59
2022-11-04T13:54:55.365Z,85.60
2022-11-04T13:58:40.705Z,85.15
2022-11-04T14:02:39.986Z,85.87
2022-11-04T14:06:55.045Z,86.50
2022-11-04T14:10:39.932Z,83.82
2022-11-04T14:14:22.609Z,83.19
2022-11-04T14:18:10.515Z,82.69
2022-11-04T14:22:15.606Z,83.38
2022-11-04T14:26:03.211Z,82.78
2022-11-04T14:29:50.653Z,81.38
2022-11-04T14:33:42.419Z,79.42
2022-11-04T14:37:29.047Z,79.73
2022-11-04T14:41:21.064Z,78.36
2022-11-04T14:45:03.983Z,77.66
2022-11-04T14:48:52.135Z,75.79
2022-11-04T14:52:38.873Z,74.96
2022-11-04T14:56:24.482Z,75.54
2022-11-04T15:00:32.836Z,75.47
2022-11-04T15:04:20.249Z,76.26
2022-11-04T15:08:04.947Z,76.34
2022-11-04T15:12:10.429Z,76.72
2022-11-04T15:15:54.556Z,76.12
2022-11-04T15:19:38.014Z,75.77
2022-11-04T15:23:45.293Z,75.49
2022-11-04T15:27:30.444Z,76.38
2022-11-04T15:31:17.789Z,76.71
2022-11-04T15:35:01.086Z,78.05
2022-11-04T15:43:19.288Z,79.92
2022-11-04T15:47:03.546Z,77.36
2022-11-04T15:50:46.821Z,77.93
2022-11-04T15:54:38.854Z,78.82
2022-11-04T15:58:21.587Z,77.60
2022-11-04T16:02:05.932Z,77.86
2022-11-04T16:06:02.510Z,78.18
2022-11-04T16:09:48.623Z,77.91
2022-11-04T16:13:31.390Z,77.25
2022-11-04T16:17:14.143Z,77.15
2022-11-04T16:20:57.400Z,77.38
2022-11-04T16:24:57.732Z,78.08
2022-11-04T16:28:47.091Z,77.87
2022-11-04T16:32:31.910Z,77.97
2022-11-04T16:36:23.396Z,78.04
2022-11-04T16:40:09.246Z,78.48
2022-11-04T16:43:52.216Z,78.87
2022-11-04T16:47:37.511Z,79.74
2022-11-04T16:51:22.056Z,82.71
2022-11-04T16:55:10.515Z,83.10
2022-11-04T16:58:53.431Z,81.93
2022-11-04T17:02:38.446Z,81.84
2022-11-04T17:06:21.337Z,82.10
2022-11-04T17:10:14.033Z,80.38
2022-11-04T17:13:56.770Z,79.16
2022-11-04T17:17:40.018Z,79.28
2022-11-04T17:21:23.919Z,79.72
2022-11-04T17:25:22.183Z,79.59
2022-11-04T17:29:05.013Z,79.19
2022-11-04T17:32:47.993Z,80.08
2022-11-04T17:36:31.280Z,80.32
2022-11-04T17:40:25.338Z,79.52
2022-11-04T17:44:08.329Z,78.13
2022-11-04T17:47:51.056Z,79.10
2022-11-04T17:51:33.902Z,79.07
2022-11-04T17:55:27.744Z,78.10
2022-11-04T17:59:16.393Z,78.25
2022-11-04T18:02:59.198Z,77.80
2022-11-04T18:06:42.829Z,76.88
2022-11-04T18:10:46.619Z,76.94
2022-11-04T18:14:30.773Z,76.73
2022-11-04T18:18:13.435Z,76.68
2022-11-04T18:21:56.139Z,76.47
2022-11-04T18:25:39.917Z,76.94
2022-11-04T18:29:22.939Z,77.43
2022-11-04T18:33:07.211Z,77.23
2022-11-04T18:36:50.547Z,76.84
2022-11-04T18:40:52.779Z,76.77
2022-11-04T18:44:36.078Z,77.60
2022-11-04T18:48:20.120Z,78.25
2022-11-04T18:52:02.787Z,78.38
2022-11-04T18:55:52.743Z,78.73
2022-11-04T18:59:35.670Z,80.03
2022-11-04T19:03:18.383Z,79.60
2022-11-04T19:07:04.297Z,79.23
2022-11-04T19:11:01.573Z,79.27
2022-11-04T19:14:44.580Z,79.00
2022-11-04T19:18:28.060Z,79.21
2022-11-04T19:22:12.775Z,78.88
2022-11-04T19:26:08.514Z,78.53
2022-11-04T19:29:51.836Z,78.53
2022-11-04T19:33:34.703Z,78.97
2022-11-04T19:37:18.748Z,78.85
2022-11-04T19:41:30.864Z,79.32
2022-11-04T19:45:13.568Z,79.41
2022-11-04T19:48:57.064Z,79.96
2022-11-04T19:52:41.198Z,80.14
2022-11-04T19:56:24.624Z,80.16
2022-11-04T20:00:08.727Z,80.47
2022-11-04T20:03:51.965Z,80.45
2022-11-04T20:07:34.752Z,79.81
2022-11-04T20:11:34.230Z,80.32
2022-11-04T20:15:16.930Z,80.81
2022-11-04T20:19:01.311Z,80.57
2022-11-04T20:22:44.030Z,80.73
2022-11-04T20:26:55.542Z,80.25
2022-11-04T20:30:38.818Z,80.83
2022-11-04T20:34:21.472Z,81.54
2022-11-04T20:38:04.175Z,81.52
2022-11-04T20:41:47.941Z,81.18
2022-11-04T20:45:32.263Z,80.92
2022-11-04T20:49:14.916Z,81.07
2022-11-04T20:52:57.671Z,81.49
2022-11-04T20:56:55.447Z,80.94
2022-11-04T21:00:39.469Z,81.37
2022-11-04T21:04:22.472Z,81.58
2022-11-04T21:08:05.639Z,81.97
2022-11-04T21:12:15.531Z,81.94
2022-11-04T21:16:01.052Z,81.85
2022-11-04T21:19:43.709Z,82.06
2022-11-04T21:23:26.408Z,82.04
2022-11-04T21:27:19.244Z,81.43
2022-11-04T21:31:05.974Z,81.54
2022-11-04T21:34:48.687Z,81.12
2022-11-04T21:38:31.429Z,80.82
2022-11-04T21:42:29.169Z,80.86
2022-11-04T21:46:14.667Z,80.49
2022-11-04T21:49:57.345Z,81.02
2022-11-04T21:53:40.406Z,81.09
2022-11-04T21:57:38.006Z,80.36
2022-11-04T22:01:24.255Z,80.70
2022-11-04T22:05:07.897Z,80.25
2022-11-04T22:08:54.079Z,80.78
2022-11-04T22:12:50.030Z,80.51
2022-11-04T22:16:36.848Z,80.67
2022-11-04T22:20:19.775Z,81.27
2022-11-04T22:24:02.671Z,81.82
2022-11-04T22:27:53.175Z,81.86
2022-11-04T22:31:38.734Z,81.95
2022-11-04T22:35:21.605Z,82.28
2022-11-04T22:39:05.453Z,82.28
2022-11-04T22:43:01.879Z,82.17
2022-11-04T22:46:45.956Z,81.71
2022-11-04T22:50:28.612Z,81.72
2022-11-04T22:54:11.577Z,81.49
2022-11-04T22:58:09.243Z,81.88
2022-11-04T23:01:53.440Z,81.29
2022-11-04T23:05:36.303Z,81.10
2022-11-04T23:09:19.298Z,81.04
2022-11-04T23:13:32.495Z,80.89
2022-11-04T23:17:36.309Z,80.69
2022-11-04T23:21:38.231Z,80.52
2022-11-04T23:25:21.331Z,80.51
2022-11-04T23:29:21.519Z,81.35
2022-11-04T23:33:07.566Z,81.48
2022-11-04T23:37:08.090Z,81.43
2022-11-04T23:41:06.025Z,80.92
2022-11-04T23:45:08.045Z,81.80
2022-11-04T23:49:20.906Z,82.05
2022-11-04T23:53:22.002Z,83.00
2022-11-04T23:57:22.352Z,82.84
